createdAt,value
2023-02-09T00:00:26.837Z,13
2023-02-09T00:01:26.732Z,12
2023-02-09T00:02:27.364Z,13
2023-02-09T00:03:26.865Z,15
2023-02-09T00:04:27.146Z,16
2023-02-09T00:05:27.326Z,13
2023-02-09T00:06:27.052Z,14
2023-02-09T00:07:27.577Z,14
2023-02-09T00:08:26.763Z,14
2023-02-09T00:09:26.798Z,12
2023-02-09T00:10:27.398Z,15
2023-02-09T00:11:26.886Z,14
2023-02-09T00:12:26.987Z,13
2023-02-09T00:13:26.756Z,14
2023-02-09T00:14:26.736Z,14
2023-02-09T00:15:27.173Z,14
2023-02-09T00:16:27.694Z,13
2023-02-09T00:17:26.825Z,14
2023-02-09T00:18:27.035Z,15
2023-02-09T00:19:27.256Z,13
2023-02-09T00:20:27.492Z,12
2023-02-09T00:21:27.253Z,14
2023-02-09T00:22:27.668Z,13
2023-02-09T00:23:27.386Z,14
2023-02-09T00:24:27.894Z,14
2023-02-09T00:25:26.871Z,15
2023-02-09T00:26:27.521Z,16
2023-02-09T00:27:27.446Z,13
2023-02-09T00:28:27.295Z,13
2023-02-09T00:29:27.425Z,14
2023-02-09T00:30:26.807Z,12
2023-02-09T00:31:26.906Z,18
2023-02-09T00:32:26.804Z,15
2023-02-09T00:33:26.821Z,15
2023-02-09T00:34:26.844Z,11
2023-02-09T00:35:27.069Z,15
2023-02-09T00:36:26.734Z,14
2023-02-09T00:37:27.189Z,17
2023-02-09T00:38:26.723Z,13
2023-02-09T00:39:26.764Z,13
2023-02-09T00:40:27.393Z,12
2023-02-09T00:41:27.315Z,16
2023-02-09T00:42:26.775Z,15
2023-02-09T00:43:26.745Z,13
2023-02-09T00:44:27.621Z,14
2023-02-09T00:45:26.929Z,14
2023-02-09T00:46:27.350Z,14
2023-02-09T00:47:26.939Z,14
2023-02-09T00:48:26.830Z,15
2023-02-09T00:49:26.824Z,16
2023-02-09T00:50:26.788Z,13
2023-02-09T00:51:27.088Z,15
2023-02-09T00:52:27.147Z,16
2023-02-09T00:53:27.196Z,16
2023-02-09T00:54:27.250Z,14
2023-02-09T00:55:27.494Z,16
2023-02-09T00:56:26.723Z,15
2023-02-09T00:57:26.775Z,15
2023-02-09T00:58:26.792Z,15
2023-02-09T00:59:27.222Z,15
2023-02-09T01:00:27.756Z,14
2023-02-09T01:01:27.261Z,15
2023-02-09T01:02:27.228Z,17
2023-02-09T01:03:26.713Z,15
2023-02-09T01:04:27.420Z,13
2023-02-09T01:05:26.973Z,16
2023-02-09T01:06:27.344Z,17
2023-02-09T01:07:26.941Z,15
2023-02-09T01:08:27.148Z,16
2023-02-09T01:09:27.358Z,16
2023-02-09T01:10:26.754Z,14
2023-02-09T01:11:26.893Z,16
2023-02-09T01:12:26.751Z,15
2023-02-09T01:13:26.990Z,16
2023-02-09T01:14:27.597Z,16
2023-02-09T01:15:26.877Z,16
2023-02-09T01:16:26.844Z,16
2023-02-09T01:17:27.342Z,17
2023-02-09T01:18:26.791Z,17
2023-02-09T01:19:27.423Z,13
2023-02-09T01:20:26.730Z,13
2023-02-09T01:21:26.843Z,15
2023-02-09T01:22:27.346Z,16
2023-02-09T01:23:26.826Z,16
2023-02-09T01:24:25.829Z,16
2023-02-09T01:25:27.366Z,14
2023-02-09T01:26:27.593Z,15
2023-02-09T01:27:26.724Z,17
2023-02-09T01:28:26.897Z,16
2023-02-09T01:29:26.969Z,16
2023-02-09T01:30:26.852Z,17
2023-02-09T01:31:27.195Z,14
2023-02-09T01:32:27.022Z,16
2023-02-09T01:33:26.719Z,15
2023-02-09T01:34:26.792Z,15
2023-02-09T01:35:26.726Z,14
2023-02-09T01:36:27.538Z,18
2023-02-09T01:37:27.333Z,14
2023-02-09T01:38:26.845Z,15
2023-02-09T01:39:27.080Z,18
2023-02-09T01:40:27.256Z,15
2023-02-09T01:41:26.777Z,15
2023-02-09T01:42:27.171Z,15
2023-02-09T01:43:26.731Z,15
2023-02-09T01:44:27.348Z,16
2023-02-09T01:45:27.665Z,14
2023-02-09T01:46:26.792Z,17
2023-02-09T01:47:27.162Z,16
2023-02-09T01:48:26.712Z,13
2023-02-09T01:49:26.745Z,15
2023-02-09T01:50:27.404Z,16
2023-02-09T01:51:26.815Z,15
2023-02-09T01:52:27.625Z,15
2023-02-09T01:53:26.810Z,13
2023-02-09T01:54:27.153Z,14
2023-02-09T01:55:27.356Z,16
2023-02-09T01:56:26.755Z,14
2023-02-09T01:57:27.504Z,14
2023-02-09T01:58:26.780Z,16
2023-02-09T01:59:26.881Z,16
2023-02-09T02:00:27.505Z,15
2023-02-09T02:01:26.870Z,15
2023-02-09T02:02:27.420Z,16
2023-02-09T02:03:27.590Z,14
2023-02-09T02:04:26.785Z,16
2023-02-09T02:05:27.485Z,17
2023-02-09T02:06:27.232Z,16
2023-02-09T02:07:27.017Z,15
2023-02-09T02:08:26.807Z,15
2023-02-09T02:09:26.722Z,16
2023-02-09T02:10:27.039Z,15
2023-02-09T02:11:26.716Z,16
2023-02-09T02:12:27.056Z,15
2023-02-09T02:13:26.773Z,15
2023-02-09T02:14:27.393Z,16
2023-02-09T02:15:27.310Z,17
2023-02-09T02:16:27.183Z,17
2023-02-09T02:17:26.701Z,16
2023-02-09T02:18:26.773Z,15
2023-02-09T02:19:27.201Z,16
2023-02-09T02:20:27.293Z,16
2023-02-09T02:21:26.820Z,16
2023-02-09T02:22:26.800Z,16
2023-02-09T02:23:26.840Z,15
2023-02-09T02:24:27.218Z,16
2023-02-09T02:25:27.337Z,18
2023-02-09T02:26:26.875Z,16
2023-02-09T02:27:27.058Z,18
2023-02-09T02:28:27.457Z,14
2023-02-09T02:29:26.764Z,17
2023-02-09T02:30:26.826Z,14
2023-02-09T02:31:26.887Z,15
2023-02-09T02:32:27.252Z,18
2023-02-09T02:33:26.881Z,13
2023-02-09T02:34:26.777Z,16
2023-02-09T02:35:27.603Z,15
2023-02-09T02:36:26.807Z,15
2023-02-09T02:37:26.991Z,17
2023-02-09T02:38:26.720Z,14
2023-02-09T02:39:27.640Z,17
2023-02-09T02:40:26.705Z,17
2023-02-09T02:41:27.140Z,18
2023-02-09T02:42:26.833Z,17
2023-02-09T02:43:26.832Z,14
2023-02-09T02:44:27.666Z,15
2023-02-09T02:45:26.935Z,17
2023-02-09T02:46:26.862Z,16
2023-02-09T02:47:27.154Z,16
2023-02-09T02:48:26.758Z,16
2023-02-09T02:49:26.767Z,15
2023-02-09T02:50:27.718Z,18
2023-02-09T02:51:26.797Z,17
2023-02-09T02:52:26.703Z,15
2023-02-09T02:53:26.826Z,14
2023-02-09T02:54:26.812Z,17
2023-02-09T02:55:26.719Z,17
2023-02-09T02:56:26.876Z,16
2023-02-09T02:57:26.825Z,15
2023-02-09T02:58:27.128Z,17
2023-02-09T02:59:28.394Z,16
2023-02-09T03:00:28.695Z,16
2023-02-09T03:01:26.904Z,18
2023-02-09T03:02:26.756Z,17
2023-02-09T03:03:27.030Z,17
2023-02-09T03:04:27.104Z,16
2023-02-09T03:05:27.264Z,18
2023-02-09T03:06:27.719Z,16
2023-02-09T03:07:27.224Z,16
2023-02-09T03:08:26.759Z,18
2023-02-09T03:09:26.703Z,16
2023-02-09T03:10:27.216Z,18
2023-02-09T03:11:27.666Z,16
2023-02-09T03:12:27.126Z,16
2023-02-09T03:13:27.028Z,17
2023-02-09T03:14:26.721Z,15
2023-02-09T03:15:27.516Z,17
2023-02-09T03:16:27.338Z,16
2023-02-09T03:17:27.986Z,15
2023-02-09T03:18:27.276Z,16
2023-02-09T03:19:27.384Z,17
2023-02-09T03:20:26.749Z,17
2023-02-09T03:21:26.714Z,15
2023-02-09T03:22:27.071Z,15
2023-02-09T03:23:27.208Z,15
2023-02-09T03:24:26.789Z,15
2023-02-09T03:25:26.819Z,16
2023-02-09T03:26:26.822Z,16
2023-02-09T03:27:26.818Z,16
2023-02-09T03:28:26.783Z,17
2023-02-09T03:29:26.837Z,16
2023-02-09T03:30:28.017Z,16
2023-02-09T03:31:27.666Z,16
2023-02-09T03:32:27.254Z,17
2023-02-09T03:33:27.422Z,16
2023-02-09T03:34:26.750Z,15
2023-02-09T03:35:26.719Z,16
2023-02-09T03:36:26.782Z,15
2023-02-09T03:37:26.785Z,15
2023-02-09T03:38:27.505Z,15
2023-02-09T03:39:26.909Z,16
2023-02-09T03:40:27.505Z,17
2023-02-09T03:41:26.809Z,17
2023-02-09T03:42:28.868Z,18
2023-02-09T03:43:27.429Z,15
2023-02-09T03:44:27.011Z,15
2023-02-09T03:45:27.016Z,17
2023-02-09T03:46:27.510Z,17
2023-02-09T03:47:27.297Z,16
2023-02-09T03:48:27.255Z,16
2023-02-09T03:49:26.693Z,17
2023-02-09T03:50:26.698Z,15
2023-02-09T03:51:26.804Z,15
2023-02-09T03:52:26.780Z,16
2023-02-09T03:53:26.776Z,18
2023-02-09T03:54:26.784Z,17
2023-02-09T03:55:26.802Z,17
2023-02-09T03:56:26.805Z,15
2023-02-09T03:57:26.701Z,15
2023-02-09T03:58:27.212Z,16
2023-02-09T03:59:27.547Z,17
2023-02-09T04:00:27.442Z,16
2023-02-09T04:01:26.901Z,14
2023-02-09T04:02:27.636Z,15
2023-02-09T04:03:26.834Z,17
2023-02-09T04:04:27.050Z,15
2023-02-09T04:05:27.204Z,17
2023-02-09T04:06:26.895Z,16
2023-02-09T04:07:27.274Z,19
2023-02-09T04:08:27.390Z,17
2023-02-09T04:09:27.080Z,15
2023-02-09T04:10:27.493Z,17
2023-02-09T04:11:26.791Z,16
2023-02-09T04:12:26.946Z,17
2023-02-09T04:13:26.707Z,18
2023-02-09T04:14:27.406Z,17
2023-02-09T04:15:26.739Z,17
2023-02-09T04:16:26.799Z,16
2023-02-09T04:17:26.862Z,17
2023-02-09T04:18:27.553Z,16
2023-02-09T04:19:27.147Z,18
2023-02-09T04:20:27.196Z,17
2023-02-09T04:21:27.099Z,16
2023-02-09T04:22:27.372Z,16
2023-02-09T04:23:27.184Z,17
2023-02-09T04:24:26.776Z,15
2023-02-09T04:25:26.762Z,17
2023-02-09T04:26:26.750Z,18
2023-02-09T04:27:27.377Z,19
2023-02-09T04:28:27.578Z,16
2023-02-09T04:29:26.721Z,17
2023-02-09T04:30:27.317Z,17
2023-02-09T04:31:27.263Z,16
2023-02-09T04:32:26.824Z,17
2023-02-09T04:33:26.717Z,17
2023-02-09T04:34:26.939Z,16
2023-02-09T04:35:27.523Z,19
2023-02-09T04:36:26.720Z,16
2023-02-09T04:37:27.327Z,17
2023-02-09T04:38:27.588Z,17
2023-02-09T04:39:27.326Z,17
2023-02-09T04:40:27.188Z,17
2023-02-09T04:41:26.782Z,17
2023-02-09T04:42:26.803Z,16
2023-02-09T04:43:27.001Z,19
2023-02-09T04:44:26.833Z,17
2023-02-09T04:45:28.094Z,18
2023-02-09T04:46:26.743Z,16
2023-02-09T04:47:27.507Z,18
2023-02-09T04:48:27.654Z,17
2023-02-09T04:49:27.026Z,18
2023-02-09T04:50:27.375Z,16
2023-02-09T04:51:27.447Z,16
2023-02-09T04:52:27.214Z,17
2023-02-09T04:53:27.173Z,18
2023-02-09T04:54:26.729Z,16
2023-02-09T04:55:27.583Z,16
2023-02-09T04:56:26.691Z,15
2023-02-09T04:57:26.766Z,17
2023-02-09T04:58:26.687Z,19
2023-02-09T04:59:27.715Z,20
2023-02-09T05:00:27.245Z,15
2023-02-09T05:01:26.842Z,16
2023-02-09T05:02:27.343Z,18
2023-02-09T05:03:27.283Z,17
2023-02-09T05:04:26.738Z,18
2023-02-09T05:05:26.689Z,17
2023-02-09T05:06:26.691Z,20
2023-02-09T05:07:26.710Z,18
2023-02-09T05:08:27.390Z,17
2023-02-09T05:09:27.426Z,16
2023-02-09T05:10:26.678Z,16
2023-02-09T05:11:26.687Z,19
2023-02-09T05:12:26.722Z,18
2023-02-09T05:13:27.170Z,19
2023-02-09T05:14:26.698Z,18
2023-02-09T05:15:26.800Z,18
2023-02-09T05:16:26.764Z,19
2023-02-09T05:17:26.822Z,19
2023-02-09T05:18:26.936Z,17
2023-02-09T05:19:27.214Z,18
2023-02-09T05:20:27.642Z,19
2023-02-09T05:21:26.805Z,18
2023-02-09T05:22:26.747Z,16
2023-02-09T05:23:27.337Z,18
2023-02-09T05:24:26.743Z,19
2023-02-09T05:25:26.811Z,21
2023-02-09T05:26:27.303Z,19
2023-02-09T05:27:27.003Z,19
2023-02-09T05:28:26.892Z,18
2023-02-09T05:29:27.543Z,21
2023-02-09T05:30:27.409Z,20
2023-02-09T05:31:27.047Z,21
2023-02-09T05:32:27.086Z,20
2023-02-09T05:33:26.688Z,20
2023-02-09T05:34:27.197Z,18
2023-02-09T05:35:27.190Z,19
2023-02-09T05:36:28.492Z,20
2023-02-09T05:37:26.769Z,20
2023-02-09T05:38:27.194Z,19
2023-02-09T05:39:27.343Z,17
2023-02-09T05:40:27.544Z,17
2023-02-09T05:41:27.184Z,20
2023-02-09T05:42:26.769Z,18
2023-02-09T05:43:26.847Z,20
2023-02-09T05:44:27.280Z,18
2023-02-09T05:45:27.066Z,19
2023-02-09T05:46:26.843Z,17
2023-02-09T05:47:27.624Z,20
2023-02-09T05:48:27.326Z,18
2023-02-09T05:49:27.022Z,19
2023-02-09T05:50:26.676Z,20
2023-02-09T05:51:26.830Z,18
2023-02-09T05:52:26.841Z,19
2023-02-09T05:53:27.539Z,18
2023-02-09T05:54:26.735Z,18
2023-02-09T05:55:25.513Z,18
2023-02-09T05:57:26.702Z,20
2023-02-09T05:58:26.690Z,20
2023-02-09T05:59:27.145Z,20
2023-02-09T06:00:26.800Z,22
2023-02-09T06:01:26.793Z,18
2023-02-09T06:02:27.212Z,22
2023-02-09T06:03:26.767Z,19
2023-02-09T06:04:27.099Z,19
2023-02-09T06:05:26.672Z,19
2023-02-09T06:06:26.918Z,20
2023-02-09T06:07:26.726Z,20
2023-02-09T06:08:26.722Z,17
2023-02-09T06:09:27.259Z,19
2023-02-09T06:10:27.204Z,22
2023-02-09T06:11:27.228Z,19
2023-02-09T06:12:26.818Z,21
2023-02-09T06:13:26.725Z,22
2023-02-09T06:14:26.772Z,21
2023-02-09T06:15:26.822Z,24
2023-02-09T06:16:26.768Z,18
2023-02-09T06:17:26.787Z,19
2023-02-09T06:18:27.394Z,19
2023-02-09T06:19:26.694Z,20
2023-02-09T06:20:27.513Z,20
2023-02-09T06:21:26.814Z,22
2023-02-09T06:22:26.685Z,20
2023-02-09T06:23:26.715Z,22
2023-02-09T06:24:26.819Z,19
2023-02-09T06:25:27.240Z,19
2023-02-09T06:26:26.691Z,21
2023-02-09T06:27:26.874Z,20
2023-02-09T06:28:26.841Z,20
2023-02-09T06:29:27.282Z,23
2023-02-09T06:30:27.516Z,21
2023-02-09T06:31:27.471Z,22
2023-02-09T06:32:26.779Z,24
2023-02-09T06:33:27.309Z,24
2023-02-09T06:34:26.670Z,23
2023-02-09T06:35:26.991Z,23
2023-02-09T06:36:27.550Z,23
2023-02-09T06:37:27.322Z,22
2023-02-09T06:38:26.707Z,22
2023-02-09T06:39:26.684Z,22
2023-02-09T06:40:27.189Z,22
2023-02-09T06:41:27.014Z,22
2023-02-09T06:42:28.987Z,23
2023-02-09T06:43:26.758Z,23
2023-02-09T06:44:27.590Z,21
2023-02-09T06:45:26.871Z,21
2023-02-09T06:46:26.854Z,20
2023-02-09T06:47:26.692Z,19
2023-02-09T06:48:26.676Z,22
2023-02-09T06:49:27.204Z,22
2023-02-09T06:50:26.721Z,22
2023-02-09T06:51:26.718Z,20
2023-02-09T06:52:27.473Z,20
2023-02-09T06:53:27.523Z,23
2023-02-09T06:54:27.424Z,20
2023-02-09T06:55:27.229Z,21
2023-02-09T06:56:26.760Z,20
2023-02-09T06:57:26.943Z,20
2023-02-09T06:58:27.551Z,19
2023-02-09T06:59:27.065Z,22
2023-02-09T07:00:26.673Z,20
2023-02-09T07:01:26.817Z,20
2023-02-09T07:02:26.816Z,20
2023-02-09T07:03:27.629Z,22
2023-02-09T07:04:27.308Z,21
2023-02-09T07:05:27.435Z,20
2023-02-09T07:06:26.826Z,26
2023-02-09T07:07:27.231Z,20
2023-02-09T07:08:26.713Z,23
2023-02-09T07:09:26.707Z,23
2023-02-09T07:10:27.416Z,22
2023-02-09T07:11:27.105Z,22
2023-02-09T07:12:26.817Z,23
2023-02-09T07:13:26.920Z,20
2023-02-09T07:14:26.763Z,20
2023-02-09T07:15:26.674Z,23
2023-02-09T07:16:27.312Z,21
2023-02-09T07:17:26.782Z,23
2023-02-09T07:18:26.762Z,21
2023-02-09T07:19:26.783Z,20
2023-02-09T07:20:26.726Z,21
2023-02-09T07:21:26.785Z,20
2023-02-09T07:22:26.711Z,22
2023-02-09T07:23:26.733Z,24
2023-02-09T07:24:27.342Z,22
2023-02-09T07:25:27.441Z,24
2023-02-09T07:26:26.938Z,22
2023-02-09T07:27:27.297Z,23
2023-02-09T07:28:26.754Z,21
2023-02-09T07:29:26.722Z,23
2023-02-09T07:30:26.756Z,24
2023-02-09T07:31:27.350Z,24
2023-02-09T07:32:26.846Z,19
2023-02-09T07:33:26.834Z,22
2023-02-09T07:34:26.755Z,20
2023-02-09T07:35:26.671Z,21
2023-02-09T07:36:26.978Z,21
2023-02-09T07:37:27.046Z,21
2023-02-09T07:38:27.149Z,23
2023-02-09T07:39:27.408Z,22
2023-02-09T07:40:27.094Z,20
2023-02-09T07:41:27.300Z,22
2023-02-09T07:42:27.220Z,21
2023-02-09T07:43:26.753Z,23
2023-02-09T07:44:27.286Z,23
2023-02-09T07:45:27.322Z,22
2023-02-09T07:46:26.764Z,23
2023-02-09T07:47:26.722Z,21
2023-02-09T07:48:27.447Z,26
2023-02-09T07:49:27.619Z,23
2023-02-09T07:50:27.131Z,22
2023-02-09T07:51:26.764Z,23
2023-02-09T07:52:26.790Z,21
2023-02-09T07:53:26.704Z,22
2023-02-09T07:54:26.950Z,21
2023-02-09T07:55:27.344Z,23
2023-02-09T07:56:26.657Z,24
2023-02-09T07:57:26.656Z,23
2023-02-09T07:58:26.681Z,22
2023-02-09T07:59:26.664Z,23
2023-02-09T08:00:26.864Z,21
2023-02-09T08:01:27.348Z,23
2023-02-09T08:02:26.686Z,23
2023-02-09T08:03:27.294Z,22
2023-02-09T08:04:27.149Z,24
2023-02-09T08:05:26.834Z,22
2023-02-09T08:06:40.675Z,21
2023-02-09T08:07:26.681Z,22
2023-02-09T08:08:27.148Z,22
2023-02-09T08:09:26.699Z,22
2023-02-09T08:10:27.346Z,25
2023-02-09T08:12:26.734Z,21
2023-02-09T08:13:26.676Z,21
2023-02-09T08:14:26.681Z,22
2023-02-09T08:15:27.637Z,21
2023-02-09T08:16:26.705Z,25
2023-02-09T08:17:27.130Z,20
2023-02-09T08:18:27.276Z,21
2023-02-09T08:19:26.746Z,20
2023-02-09T08:20:26.709Z,21
2023-02-09T08:21:27.319Z,21
2023-02-09T08:22:26.679Z,22
2023-02-09T08:23:27.508Z,23
2023-02-09T08:24:27.508Z,23
2023-02-09T08:25:26.671Z,20
2023-02-09T08:26:27.199Z,24
2023-02-09T08:27:27.087Z,21
2023-02-09T08:28:41.680Z,19
2023-02-09T08:29:27.237Z,20
2023-02-09T08:30:26.648Z,25
2023-02-09T08:31:26.887Z,22
2023-02-09T08:32:27.449Z,22
2023-02-09T08:33:25.698Z,20
2023-02-09T08:34:27.362Z,22
2023-02-09T08:35:30.649Z,21
2023-02-09T08:36:27.458Z,20
2023-02-09T08:37:26.749Z,26
2023-02-09T08:38:26.762Z,23
2023-02-09T08:39:26.774Z,20
2023-02-09T08:40:26.766Z,22
2023-02-09T08:41:26.986Z,22
2023-02-09T08:42:26.792Z,20
2023-02-09T08:43:26.691Z,20
2023-02-09T08:44:26.709Z,23
2023-02-09T08:45:26.850Z,23
2023-02-09T08:46:26.807Z,19
2023-02-09T08:47:26.926Z,20
2023-02-09T08:48:26.687Z,21
2023-02-09T08:49:26.694Z,24
2023-02-09T08:50:27.394Z,22
2023-02-09T08:51:26.750Z,20
2023-02-09T08:52:26.764Z,22
2023-02-09T08:53:26.758Z,19
2023-02-09T08:54:26.681Z,19
2023-02-09T08:55:26.733Z,19
2023-02-09T08:56:26.649Z,22
2023-02-09T08:57:41.806Z,20
2023-02-09T08:58:26.821Z,21
2023-02-09T08:59:27.202Z,21
2023-02-09T09:00:26.695Z,25
2023-02-09T09:01:27.194Z,22
2023-02-09T09:02:27.124Z,22
2023-02-09T09:03:27.083Z,21
2023-02-09T09:04:27.260Z,22
2023-02-09T09:05:27.480Z,21
2023-02-09T09:06:26.683Z,22
2023-02-09T09:07:27.583Z,21
2023-02-09T09:08:26.715Z,19
2023-02-09T09:09:27.418Z,21
2023-02-09T09:10:26.657Z,20
2023-02-09T09:11:26.685Z,23
2023-02-09T09:12:26.657Z,22
2023-02-09T09:13:26.684Z,21
2023-02-09T09:14:26.800Z,21
2023-02-09T09:15:27.212Z,22
2023-02-09T09:16:26.783Z,22
2023-02-09T09:17:26.647Z,22
2023-02-09T09:18:26.666Z,21
2023-02-09T09:19:27.152Z,20
2023-02-09T09:20:26.652Z,24
2023-02-09T09:21:27.452Z,21
2023-02-09T09:22:26.736Z,20
2023-02-09T09:23:26.658Z,18
2023-02-09T09:24:26.842Z,20
2023-02-09T09:25:26.658Z,20
2023-02-09T09:26:26.661Z,20
2023-02-09T09:27:27.606Z,22
2023-02-09T09:28:26.756Z,19
2023-02-09T09:29:27.328Z,19
2023-02-09T09:30:27.247Z,20
2023-02-09T09:31:28.617Z,22
2023-02-09T09:32:27.588Z,22
2023-02-09T09:33:26.660Z,24
2023-02-09T09:34:26.983Z,22
2023-02-09T09:35:27.624Z,21
2023-02-09T09:36:26.740Z,25
2023-02-09T09:37:27.118Z,19
2023-02-09T09:38:26.746Z,21
2023-02-09T09:39:27.440Z,25
2023-02-09T09:40:25.849Z,19
2023-02-09T09:41:27.281Z,21
2023-02-09T09:42:27.222Z,23
2023-02-09T09:43:26.647Z,24
2023-02-09T09:44:26.760Z,21
2023-02-09T09:46:26.742Z,21
2023-02-09T09:47:26.690Z,21
2023-02-09T09:48:27.410Z,21
2023-02-09T09:49:26.681Z,23
2023-02-09T09:50:27.130Z,22
2023-02-09T09:51:27.000Z,21
2023-02-09T09:52:27.100Z,20
2023-02-09T09:53:27.044Z,23
2023-02-09T09:54:26.664Z,21
2023-02-09T09:55:26.687Z,22
2023-02-09T09:56:27.256Z,23
2023-02-09T09:57:26.648Z,21
2023-02-09T09:58:26.668Z,21
2023-02-09T09:59:27.172Z,22
2023-02-09T10:00:26.659Z,21
2023-02-09T10:01:27.226Z,20
2023-02-09T10:02:27.620Z,21
2023-02-09T10:03:26.650Z,23
2023-02-09T10:04:27.662Z,19
2023-02-09T10:05:27.626Z,22
2023-02-09T10:06:26.847Z,21
2023-02-09T10:07:27.083Z,22
2023-02-09T10:08:26.981Z,21
2023-02-09T10:09:27.561Z,19
2023-02-09T10:10:27.328Z,20
2023-02-09T10:11:26.641Z,22
2023-02-09T10:12:27.222Z,22
2023-02-09T10:13:26.745Z,23
2023-02-09T10:14:26.658Z,19
2023-02-09T10:15:26.744Z,21
2023-02-09T10:16:27.009Z,20
2023-02-09T10:17:27.221Z,23
2023-02-09T10:18:26.705Z,22
2023-02-09T10:19:26.659Z,21
2023-02-09T10:20:27.095Z,23
2023-02-09T10:21:27.313Z,19
2023-02-09T10:22:26.638Z,21
2023-02-09T10:23:26.661Z,19
2023-02-09T10:24:27.442Z,22
2023-02-09T10:25:27.060Z,19
2023-02-09T10:26:26.636Z,22
2023-02-09T10:27:26.687Z,22
2023-02-09T10:28:26.791Z,23
2023-02-09T10:29:26.656Z,22
2023-02-09T10:30:27.123Z,23
2023-02-09T10:31:27.207Z,20
2023-02-09T10:32:26.637Z,24
2023-02-09T10:33:28.770Z,19
2023-02-09T10:34:26.847Z,22
2023-02-09T10:35:26.682Z,25
2023-02-09T10:36:26.654Z,24
2023-02-09T10:37:26.645Z,23
2023-02-09T10:38:27.321Z,20
2023-02-09T10:39:26.642Z,23
2023-02-09T10:40:26.631Z,22
2023-02-09T10:41:26.684Z,19
2023-02-09T10:42:27.480Z,21
2023-02-09T10:43:26.626Z,22
2023-02-09T10:44:26.857Z,18
2023-02-09T10:45:26.647Z,18
2023-02-09T10:46:26.781Z,22
2023-02-09T10:47:27.174Z,31
2023-02-09T10:48:26.685Z,29
2023-02-09T10:49:26.796Z,19
2023-02-09T10:50:26.656Z,19
2023-02-09T10:51:26.929Z,20
2023-02-09T10:52:27.548Z,20
2023-02-09T10:53:27.339Z,22
2023-02-09T10:54:26.746Z,20
2023-02-09T10:55:27.038Z,20
2023-02-09T10:56:27.068Z,21
2023-02-09T10:57:26.952Z,21
2023-02-09T10:58:26.628Z,21
2023-02-09T10:59:26.666Z,20
2023-02-09T11:00:26.779Z,21
2023-02-09T11:01:27.124Z,22
2023-02-09T11:02:27.081Z,20
2023-02-09T11:03:26.759Z,23
2023-02-09T11:04:26.875Z,21
2023-02-09T11:05:27.133Z,19
2023-02-09T11:06:26.629Z,20
2023-02-09T11:07:27.133Z,19
2023-02-09T11:08:26.732Z,20
2023-02-09T11:09:27.135Z,21
2023-02-09T11:10:26.333Z,20
2023-02-09T11:11:26.913Z,17
2023-02-09T11:12:26.994Z,22
2023-02-09T11:13:27.461Z,19
2023-02-09T11:14:27.202Z,23
2023-02-09T11:15:26.714Z,19
2023-02-09T11:16:26.790Z,22
2023-02-09T11:17:27.257Z,21
2023-02-09T11:18:27.330Z,20
2023-02-09T11:19:27.352Z,22
2023-02-09T11:20:27.082Z,20
2023-02-09T11:21:26.661Z,20
2023-02-09T11:22:29.108Z,21
2023-02-09T11:23:27.121Z,21
2023-02-09T11:24:27.049Z,20
2023-02-09T11:25:26.685Z,20
2023-02-09T11:26:27.028Z,19
2023-02-09T11:27:26.732Z,19
2023-02-09T11:28:26.810Z,20
2023-02-09T11:29:26.765Z,20
2023-02-09T11:30:27.187Z,18
2023-02-09T11:31:27.048Z,18
2023-02-09T11:32:26.761Z,21
2023-02-09T11:33:26.778Z,19
2023-02-09T11:34:26.886Z,19
2023-02-09T11:35:27.048Z,20
2023-02-09T11:36:26.880Z,18
2023-02-09T11:37:26.707Z,20
2023-02-09T11:38:26.633Z,18
2023-02-09T11:39:26.984Z,18
2023-02-09T11:40:26.710Z,18
2023-02-09T11:41:26.639Z,19
2023-02-09T11:42:26.637Z,20
2023-02-09T11:43:26.799Z,19
2023-02-09T11:44:26.668Z,17
2023-02-09T11:45:26.698Z,18
2023-02-09T11:46:26.763Z,20
2023-02-09T11:47:27.342Z,17
2023-02-09T11:48:26.620Z,18
2023-02-09T11:49:27.081Z,16
2023-02-09T11:50:27.034Z,20
2023-02-09T11:51:27.201Z,15
2023-02-09T11:52:26.630Z,18
2023-02-09T11:53:26.911Z,20
2023-02-09T11:54:26.799Z,17
2023-02-09T11:55:26.447Z,17
2023-02-09T11:56:26.633Z,19
2023-02-09T11:57:27.130Z,20
2023-02-09T11:58:27.238Z,19
2023-02-09T11:59:27.161Z,18
2023-02-09T12:00:26.745Z,18
2023-02-09T12:01:26.768Z,18
2023-02-09T12:02:26.756Z,19
2023-02-09T12:03:27.413Z,17
2023-02-09T12:04:27.086Z,17
2023-02-09T12:05:26.620Z,19
2023-02-09T12:06:27.324Z,16
2023-02-09T12:07:27.295Z,15
2023-02-09T12:08:27.607Z,19
2023-02-09T12:09:26.801Z,15
2023-02-09T12:10:27.427Z,16
2023-02-09T12:11:27.472Z,16
2023-02-09T12:12:26.718Z,16
2023-02-09T12:13:27.029Z,18
2023-02-09T12:14:27.234Z,16
2023-02-09T12:15:26.728Z,18
2023-02-09T12:16:26.871Z,16
2023-02-09T12:17:27.360Z,17
2023-02-09T12:18:27.041Z,19
2023-02-09T12:19:26.648Z,17
2023-02-09T12:20:26.824Z,18
2023-02-09T12:21:26.618Z,15
2023-02-09T12:22:26.935Z,16
2023-02-09T12:23:27.447Z,17
2023-02-09T12:24:26.987Z,18
2023-02-09T12:25:27.208Z,16
2023-02-09T12:26:26.689Z,16
2023-02-09T12:27:26.834Z,15
2023-02-09T12:28:26.770Z,16
2023-02-09T12:29:26.708Z,14
2023-02-09T12:30:26.934Z,15
2023-02-09T12:31:27.685Z,15
2023-02-09T12:32:26.642Z,15
2023-02-09T12:33:26.659Z,15
2023-02-09T12:34:27.154Z,16
2023-02-09T12:35:26.660Z,17
2023-02-09T12:36:27.169Z,15
2023-02-09T12:37:28.683Z,18
2023-02-09T12:38:27.182Z,17
2023-02-09T12:39:26.974Z,17
2023-02-09T12:40:26.685Z,15
2023-02-09T12:41:26.725Z,16
2023-02-09T12:42:26.693Z,14
2023-02-09T12:43:27.103Z,13
2023-02-09T12:44:26.822Z,17
2023-02-09T12:45:27.595Z,16
2023-02-09T12:46:27.167Z,13
2023-02-09T12:47:26.646Z,14
2023-02-09T12:48:27.091Z,16
2023-02-09T12:49:26.741Z,15
2023-02-09T12:50:27.618Z,17
2023-02-09T12:51:27.152Z,15
2023-02-09T12:52:27.474Z,16
2023-02-09T12:53:26.775Z,14
2023-02-09T12:54:26.667Z,15
2023-02-09T12:55:26.646Z,16
2023-02-09T12:56:26.637Z,16
2023-02-09T12:57:26.627Z,15
2023-02-09T12:58:26.846Z,15
2023-02-09T12:59:26.778Z,14
2023-02-09T13:00:26.718Z,14
2023-02-09T13:01:27.048Z,16
2023-02-09T13:02:27.457Z,15
2023-02-09T13:03:27.211Z,18
2023-02-09T13:04:26.724Z,16
2023-02-09T13:05:26.654Z,18
2023-02-09T13:06:26.735Z,17
2023-02-09T13:07:27.250Z,17
2023-02-09T13:08:26.877Z,16
2023-02-09T13:09:27.170Z,15
2023-02-09T13:10:27.320Z,18
2023-02-09T13:11:26.723Z,16
2023-02-09T13:12:26.783Z,14
2023-02-09T13:13:26.692Z,16
2023-02-09T13:14:26.693Z,16
2023-02-09T13:15:27.224Z,15
2023-02-09T13:16:27.283Z,14
2023-02-09T13:17:27.255Z,15
2023-02-09T13:18:27.544Z,15
2023-02-09T13:19:31.816Z,13
2023-02-09T13:20:27.353Z,15
2023-02-09T13:21:27.364Z,16
2023-02-09T13:22:27.490Z,16
2023-02-09T13:23:25.466Z,14
2023-02-09T13:24:27.388Z,14
2023-02-09T13:25:26.884Z,16
2023-02-09T13:26:27.192Z,14
2023-02-09T13:27:27.329Z,13
2023-02-09T13:28:26.841Z,14
2023-02-09T13:29:26.705Z,15
2023-02-09T13:30:27.327Z,14
2023-02-09T13:31:27.342Z,14
2023-02-09T13:32:26.646Z,15
2023-02-09T13:33:26.925Z,16
2023-02-09T13:34:26.702Z,14
2023-02-09T13:35:27.058Z,14
2023-02-09T13:36:26.999Z,12
2023-02-09T13:37:27.264Z,14
2023-02-09T13:38:27.369Z,15
2023-02-09T13:39:27.079Z,15
2023-02-09T13:40:27.374Z,14
2023-02-09T13:41:26.718Z,13
2023-02-09T13:42:27.390Z,12
2023-02-09T13:43:26.884Z,13
2023-02-09T13:44:26.705Z,14
2023-02-09T13:45:27.397Z,15
2023-02-09T13:46:27.318Z,14
2023-02-09T13:47:26.830Z,15
2023-02-09T13:48:26.734Z,12
2023-02-09T13:49:26.729Z,15
2023-02-09T13:50:26.810Z,14
2023-02-09T13:51:26.720Z,15
2023-02-09T13:52:26.733Z,14
2023-02-09T13:53:26.664Z,14
2023-02-09T13:54:26.954Z,13
2023-02-09T13:55:26.640Z,13
2023-02-09T13:56:27.180Z,16
2023-02-09T13:57:26.652Z,14
2023-02-09T13:58:26.769Z,14
2023-02-09T13:59:27.343Z,16
2023-02-09T14:00:27.246Z,15
2023-02-09T14:01:26.738Z,17
2023-02-09T14:02:26.758Z,13
2023-02-09T14:03:27.016Z,16
2023-02-09T14:04:26.715Z,16
2023-02-09T14:05:26.722Z,16
2023-02-09T14:06:26.658Z,13
2023-02-09T14:07:27.243Z,13
2023-02-09T14:08:25.926Z,15
2023-02-09T14:09:26.846Z,13
2023-02-09T14:10:27.211Z,14
2023-02-09T14:11:41.169Z,13
2023-02-09T14:12:26.757Z,14
2023-02-09T14:13:27.192Z,15
2023-02-09T14:14:26.687Z,14
2023-02-09T14:15:26.687Z,15
2023-02-09T14:16:27.127Z,16
2023-02-09T14:17:26.751Z,14
2023-02-09T14:18:26.657Z,16